Time;durP1;ratioP1;P1;durP2;ratioP2;P2;SDS_P1;SDS_P2;PMS_P1;PMS_P2;Temp;Humidity;BMP_temperature;BMP_pressure;BME280_temperature;BME280_humidity;BME280_pressure;Samples;Min_cycle;Max_cycle;Signal;HPM_P1;HPM_P2
2022/10/14 00:01:09;;;;;;;5.00;3.40;;;;;;;12.36;98.46;101465.81;4976571;28;20027;-92
2022/10/14 00:03:36;;;;;;;4.72;3.17;;;;;;;12.36;98.43;101463.22;4976752;28;20030;-90
2022/10/14 00:06:04;;;;;;;7.28;4.20;;;;;;;12.36;98.94;101463.22;4976147;28;20114;-92
2022/10/14 00:08:29;;;;;;;6.15;3.90;;;;;;;12.34;99.04;101455.41;4976154;28;20030;-92
2022/10/14 00:10:55;;;;;;;5.50;3.50;;;;;;;12.33;99.10;101458.03;4976276;28;20033;-92
2022/10/14 00:13:20;;;;;;;5.07;3.30;;;;;;;12.32;99.00;101466.72;4976213;28;20022;-91
2022/10/14 00:15:45;;;;;;;5.60;3.30;;;;;;;12.32;98.95;101462.41;4976364;28;20039;-92
2022/10/14 00:18:11;;;;;;;5.27;3.43;;;;;;;12.32;98.93;101466.72;4975899;28;20042;-92
2022/10/14 00:20:36;;;;;;;3.57;2.90;;;;;;;12.33;99.15;101465.84;4976331;28;20489;-92
2022/10/14 00:23:01;;;;;;;3.63;2.80;;;;;;;12.32;99.15;101458.91;4975986;28;20023;-92
2022/10/14 00:25:27;;;;;;;4.10;2.97;;;;;;;12.32;98.94;101466.72;4976221;28;20498;-92
2022/10/14 00:27:53;;;;;;;4.47;3.07;;;;;;;12.32;98.93;101467.59;4975849;28;20105;-91
2022/10/14 00:30:18;;;;;;;4.57;3.20;;;;;;;12.32;98.71;101458.91;4976035;28;20076;-93
2022/10/14 00:32:44;;;;;;;5.10;3.20;;;;;;;12.33;98.66;101464.09;4976114;28;20033;-92
2022/10/14 00:35:09;;;;;;;4.00;3.13;;;;;;;12.34;98.92;101460.63;4975881;28;20034;-92
2022/10/14 00:37:35;;;;;;;4.23;3.03;;;;;;;12.34;98.96;101457.16;4975636;28;20031;-92
2022/10/14 00:40:00;;;;;;;4.77;3.37;;;;;;;12.35;98.77;101451.09;4975459;28;20079;-91
2022/10/14 00:42:26;;;;;;;3.43;2.73;;;;;;;12.35;98.96;101448.47;4975879;28;20073;-92
2022/10/14 00:44:59;;;;;;;4.30;2.80;;;;;;;12.33;98.91;101445.88;4975896;28;20117;-92
2022/10/14 00:47:25;;;;;;;3.95;3.00;;;;;;;12.34;98.87;101446.75;4975561;28;20086;-93
2022/10/14 00:49:50;;;;;;;4.33;3.00;;;;;;;12.32;99.14;101444.19;4981029;28;20139;-92
2022/10/14 00:52:20;;;;;;;3.73;2.73;;;;;;;12.32;98.83;101443.31;4977379;28;20130;-92
2022/10/14 00:54:50;;;;;;;3.90;2.70;;;;;;;12.31;98.95;101434.66;4975665;28;20026;-93
2022/10/14 00:57:17;;;;;;;3.85;2.70;;;;;;;12.30;99.17;101438.13;4975152;28;20114;-92
2022/10/14 00:59:42;;;;;;;3.75;2.80;;;;;;;12.30;99.07;101434.66;4975691;28;20062;-91
2022/10/14 01:02:08;;;;;;;5.30;3.30;;;;;;;12.29;98.61;101428.59;4975564;28;20038;-92
2022/10/14 01:04:37;;;;;;;5.33;3.37;;;;;;;12.30;98.82;101426.84;4975013;28;20489;-91
2022/10/14 01:07:07;;;;;;;5.32;3.45;;;;;;;12.30;98.84;101425.13;4974689;28;20090;-92
2022/10/14 01:09:43;;;;;;;4.32;3.17;;;;;;;12.31;98.81;101424.25;4975208;28;20078;-91
2022/10/14 01:12:18;;;;;;;6.95;3.88;;;;;;;12.31;98.73;101426.84;4975473;28;20090;-91
2022/10/14 01:14:58;;;;;;;5.65;3.53;;;;;;;12.32;98.71;101422.47;4975565;28;20037;-92
2022/10/14 01:17:52;;;;;;;5.10;3.70;;;;;;;12.32;98.88;101418.16;4975553;28;20371;-92
2022/10/14 01:21:01;;;;;;;6.07;3.80;;;;;;;12.32;99.23;101412.06;4966499;28;20041;-91
2022/10/14 01:23:43;;;;;;;4.43;3.15;;;;;;;12.30;99.21;101406.91;4934769;29;20024;-92
2022/10/14 01:26:18;;;;;;;3.60;2.88;;;;;;;12.29;99.24;101399.09;4973591;28;20484;-92
2022/10/14 01:29:05;;;;;;;3.95;2.95;;;;;;;12.25;99.66;101380.06;4975580;28;20030;-92
2022/10/14 01:31:34;;;;;;;5.63;3.20;;;;;;;12.23;99.42;101375.75;4974650;28;20035;-92
2022/10/14 01:34:04;;;;;;;3.90;2.72;;;;;;;12.21;99.22;101375.81;4975151;28;20035;-91
2022/10/14 01:36:49;;;;;;;7.05;4.25;;;;;;;12.21;98.95;101378.41;4975350;28;20027;-92
2022/10/14 01:39:24;;;;;;;5.68;3.60;;;;;;;12.22;99.24;101374.03;4974957;28;20486;-92
2022/10/14 01:41:57;;;;;;;6.25;3.80;;;;;;;12.21;98.94;101365.38;4974914;28;20027;-92
2022/10/14 01:44:25;;;;;;;7.90;4.47;;;;;;;12.23;99.54;101373.16;4975222;28;20098;-92
2022/10/14 01:46:53;;;;;;;7.05;4.05;;;;;;;12.20;99.54;101368.88;4974854;28;20058;-92
2022/10/14 01:49:32;;;;;;;7.95;4.57;;;;;;;12.24;99.35;101356.66;4977511;28;20025;-91
2022/10/14 01:52:04;;;;;;;12.38;6.43;;;;;;;12.18;99.01;101357.63;4978897;28;20042;-92
2022/10/14 01:54:34;;;;;;;9.13;5.07;;;;;;;12.18;99.17;101365.41;4978944;28;20058;-91
2022/10/14 01:57:03;;;;;;;9.82;4.72;;;;;;;12.17;99.54;101364.53;4978636;28;20026;-91
2022/10/14 01:59:31;;;;;;;8.15;4.47;;;;;;;12.16;99.96;101360.22;4978686;28;20027;-90
2022/10/14 02:01:56;;;;;;;6.72;3.90;;;;;;;12.15;99.92;101363.72;4978680;28;20051;-92
2022/10/14 02:04:22;;;;;;;5.27;3.27;;;;;;;12.13;99.86;101365.50;4978348;28;20432;-91
2022/10/14 02:07:07;;;;;;;6.53;3.80;;;;;;;12.13;100.00;101359.41;4978557;28;20061;-91
2022/10/14 02:10:09;;;;;;;7.47;4.20;;;;;;;12.10;100.00;101357.72;4978736;28;20035;-91
2022/10/14 02:12:37;;;;;;;7.72;4.20;;;;;;;12.10;99.73;101351.66;4978605;28;20042;-91
2022/10/14 02:15:32;;;;;;;7.15;4.05;;;;;;;12.10;99.80;101343.84;4977968;28;20038;-91
2022/10/14 02:18:09;;;;;;;7.40;3.85;;;;;;;12.09;100.00;101353.38;4977763;28;20047;-91
2022/10/14 02:20:50;;;;;;;6.20;3.70;;;;;;;12.10;100.00;101349.91;4978403;28;20035;-91
2022/10/14 02:23:21;;;;;;;7.93;4.20;;;;;;;12.08;100.00;101343.00;4959288;28;20117;-91
2022/10/14 02:25:48;;;;;;;6.55;4.00;;;;;;;12.07;100.00;101343.91;4959114;28;20028;-91
2022/10/14 02:28:20;;;;;;;7.28;3.67;;;;;;;12.07;100.00;101342.13;4958773;28;20110;-91
2022/10/14 02:30:51;;;;;;;6.88;3.33;;;;;;;12.08;100.00;101345.63;4972740;28;20035;-91
2022/10/14 02:33:19;;;;;;;6.55;3.50;;;;;;;12.08;100.00;101335.22;4977768;28;20027;-91
2022/10/14 02:35:47;;;;;;;5.75;3.40;;;;;;;12.09;100.00;101337.78;4978396;28;20106;-91
2022/10/14 02:38:14;;;;;;;4.70;3.03;;;;;;;12.09;100.00;101337.78;4977747;28;20031;-90
2022/10/14 02:40:41;;;;;;;;;;;;;;;12.12;99.98;101347.28;4978269;28;20087;-91
2022/10/14 02:43:09;;;;;;;5.63;3.35;;;;;;;12.12;100.00;101347.28;4977880;28;19914;-91
2022/10/14 02:45:36;;;;;;;5.25;3.25;;;;;;;12.13;100.00;101343.78;4977501;28;20479;-91
2022/10/14 02:48:01;;;;;;;4.05;2.90;;;;;;;12.13;100.00;101339.47;4977575;28;20031;-90
2022/10/14 02:50:27;;;;;;;4.90;3.00;;;;;;;12.14;99.97;101338.59;4977550;28;20134;-90
2022/10/14 02:52:52;;;;;;;4.57;2.97;;;;;;;12.17;100.00;101335.06;4977739;28;20031;-90
2022/10/14 02:55:17;;;;;;;3.80;2.70;;;;;;;12.16;99.97;101339.41;4977476;28;20027;-90
2022/10/14 02:57:43;;;;;;;3.97;2.70;;;;;;;12.17;100.00;101330.72;4977142;28;20027;-91
2022/10/14 03:00:09;;;;;;;6.60;3.27;;;;;;;12.16;100.00;101326.41;4977381;28;20022;-91
2022/10/14 03:02:34;;;;;;;4.07;2.70;;;;;;;12.16;100.00;101326.41;4977270;28;20034;-90
2022/10/14 03:04:59;;;;;;;4.77;2.93;;;;;;;12.16;100.00;101322.94;4977130;28;20030;-90
2022/10/14 03:07:25;;;;;;;5.07;3.20;;;;;;;12.17;100.00;101314.25;4977621;28;20467;-90
2022/10/14 03:09:50;;;;;;;4.20;2.90;;;;;;;12.19;99.78;101317.72;4977021;28;20026;-90
2022/10/14 03:12:15;;;;;;;4.23;2.90;;;;;;;12.19;99.97;101310.75;4977460;28;20043;-89
2022/10/14 03:14:41;;;;;;;5.37;2.80;;;;;;;12.19;100.00;101312.50;4977334;28;20030;-89
2022/10/14 03:17:06;;;;;;;4.63;2.77;;;;;;;12.20;100.00;101309.88;4961956;28;20038;-90
2022/10/14 03:19:32;;;;;;;4.37;2.90;;;;;;;12.20;100.00;101301.22;4957572;29;20027;-89
2022/10/14 03:21:57;;;;;;;5.80;3.30;;;;;;;12.22;100.00;101295.97;4957107;28;20027;-87
2022/10/14 03:24:22;;;;;;;5.10;3.00;;;;;;;12.22;100.00;101296.81;4964682;28;20064;-89
2022/10/14 03:26:48;;;;;;;6.10;3.60;;;;;;;12.22;100.00;101301.19;4977191;28;20459;-89
2022/10/14 03:29:13;;;;;;;5.67;3.20;;;;;;;12.21;100.00;101302.94;4976003;28;20114;-88
2022/10/14 03:31:38;;;;;;;6.37;3.23;;;;;;;12.22;100.00;101302.03;4976531;28;20031;-88
2022/10/14 03:34:03;;;;;;;5.07;2.90;;;;;;;12.21;100.00;101297.72;4976588;28;20041;-88
2022/10/14 03:36:29;;;;;;;4.00;2.83;;;;;;;12.21;100.00;101292.53;4975631;28;20030;-88
2022/10/14 03:38:54;;;;;;;4.70;2.90;;;;;;;12.20;100.00;101289.06;4976054;28;20122;-87
2022/10/14 03:41:19;;;;;;;4.00;2.70;;;;;;;12.22;100.00;101295.97;4976446;28;20023;-89
2022/10/14 03:43:45;;;;;;;3.33;2.53;;;;;;;12.22;100.00;101291.63;4976132;28;20034;-88
2022/10/14 03:46:10;;;;;;;4.17;2.53;;;;;;;12.23;100.00;101282.94;4976144;28;20054;-88
2022/10/14 03:48:35;;;;;;;5.43;2.90;;;;;;;12.25;100.00;101282.94;4976486;28;20054;-89
2022/10/14 03:51:00;;;;;;;7.23;3.40;;;;;;;12.24;100.00;101279.44;4975274;28;20150;-88
2022/10/14 03:53:26;;;;;;;5.53;3.30;;;;;;;12.23;100.00;101272.53;4976100;28;20031;-88
2022/10/14 03:55:51;;;;;;;5.87;3.40;;;;;;;12.25;100.00;101277.72;4975693;28;20033;-88
2022/10/14 03:58:16;;;;;;;6.23;3.73;;;;;;;12.26;100.00;101276.84;4975972;28;20383;-88
2022/10/14 04:00:41;;;;;;;7.30;3.37;;;;;;;12.23;100.00;101272.53;4976092;28;20029;-88
2022/10/14 04:03:07;;;;;;;5.73;3.43;;;;;;;12.24;100.00;101276.84;4975785;28;20037;-87
2022/10/14 04:05:33;;;;;;;4.63;3.07;;;;;;;12.25;100.00;101265.56;4975340;28;20037;-88
2022/10/14 04:08:00;;;;;;;6.72;3.90;;;;;;;12.25;100.00;101260.34;4975402;28;20027;-88
2022/10/14 04:10:25;;;;;;;4.85;3.10;;;;;;;12.26;100.00;101261.22;4975735;28;20452;-88
2022/10/14 04:12:54;;;;;;;5.73;3.47;;;;;;;12.28;100.00;101265.53;4974724;28;20027;-88
2022/10/14 04:15:21;;;;;;;6.68;3.80;;;;;;;12.27;100.00;101253.38;4976256;28;20091;-88
2022/10/14 04:17:46;;;;;;;5.88;3.60;;;;;;;12.29;100.00;101255.94;4975732;28;20031;-88
2022/10/14 04:20:12;;;;;;;4.60;3.00;;;;;;;12.28;100.00;101257.72;4974515;28;20130;-88
2022/10/14 04:22:37;;;;;;;4.40;2.97;;;;;;;12.29;100.00;101262.03;4975649;28;20085;-89
2022/10/14 04:25:02;;;;;;;4.03;2.60;;;;;;;12.29;100.00;101258.56;4975461;28;20030;-88
2022/10/14 04:27:28;;;;;;;4.00;2.53;;;;;;;12.29;100.00;101254.22;4975146;28;20051;-89
2022/10/14 04:29:53;;;;;;;2.60;2.23;;;;;;;12.30;100.00;101249.88;4975548;28;20023;-88
2022/10/14 04:32:19;;;;;;;3.67;2.53;;;;;;;12.30;100.00;101245.53;4975353;28;20029;-87
2022/10/14 04:34:44;;;;;;;3.60;2.50;;;;;;;12.30;100.00;101249.88;4975728;28;20050;-89
2022/10/14 04:37:09;;;;;;;6.00;3.63;;;;;;;12.29;100.00;101243.81;4975612;28;20459;-89
2022/10/14 04:39:35;;;;;;;5.57;3.40;;;;;;;12.30;100.00;101249.88;4974863;28;20031;-89
2022/10/14 04:42:00;;;;;;;5.73;3.20;;;;;;;12.28;100.00;101236.88;4975578;28;20035;-89
2022/10/14 04:44:25;;;;;;;4.17;2.93;;;;;;;12.29;100.00;101238.63;4975804;28;20031;-89
2022/10/14 04:46:51;;;;;;;4.07;2.73;;;;;;;12.29;100.00;101237.72;4974892;28;20027;-88
2022/10/14 04:49:16;;;;;;;5.03;3.17;;;;;;;12.29;100.00;101236.00;4975591;28;20464;-88
2022/10/14 04:51:42;;;;;;;4.50;3.10;;;;;;;12.30;100.00;101235.13;4974821;28;20030;-88
2022/10/14 04:54:07;;;;;;;6.23;3.80;;;;;;;12.28;100.00;101229.09;4975145;28;20054;-89
2022/10/14 04:56:32;;;;;;;7.40;3.90;;;;;;;12.27;100.00;101229.13;4975517;28;20027;-89
2022/10/14 04:58:58;;;;;;;6.17;3.70;;;;;;;12.27;100.00;101221.31;4975430;28;20430;-88
2022/10/14 05:01:23;;;;;;;6.70;4.13;;;;;;;12.27;100.00;101229.13;4975098;28;20535;-88
2022/10/14 05:03:50;;;;;;;6.53;4.00;;;;;;;12.26;100.00;101225.63;4975257;28;20031;-89
2022/10/14 05:06:15;;;;;;;6.05;3.53;;;;;;;12.25;100.00;101229.13;4974988;28;20062;-88
2022/10/14 05:08:41;;;;;;;5.90;3.57;;;;;;;12.28;100.00;101220.41;4974498;28;20062;-88
2022/10/14 05:11:06;;;;;;;6.73;4.10;;;;;;;12.25;100.00;101218.72;4974939;28;20031;-89
2022/10/14 05:13:32;;;;;;;7.90;4.40;;;;;;;12.27;100.00;101210.91;4974933;28;20023;-88
2022/10/14 05:15:57;;;;;;;6.97;4.10;;;;;;;12.29;100.00;101209.09;4973742;28;20037;-88
2022/10/14 05:18:22;;;;;;;5.97;3.57;;;;;;;12.26;100.00;101201.38;4974185;28;20388;-88
2022/10/14 05:20:48;;;;;;;4.33;3.10;;;;;;;12.28;100.00;101207.38;4974747;28;20049;-89
2022/10/14 05:23:13;;;;;;;4.17;3.00;;;;;;;12.26;100.00;101202.22;4973789;28;20120;-88
2022/10/14 05:25:38;;;;;;;3.03;2.53;;;;;;;12.29;100.00;101201.31;4975031;28;20031;-88
2022/10/14 05:28:04;;;;;;;2.77;2.43;;;;;;;12.30;100.00;101201.28;4974156;28;20034;-88
2022/10/14 05:30:29;;;;;;;2.90;2.30;;;;;;;12.30;100.00;101192.63;4974447;28;20390;-88
2022/10/14 05:32:55;;;;;;;3.80;2.70;;;;;;;12.32;100.00;101183.03;4974378;28;20498;-88
2022/10/14 05:35:20;;;;;;;4.23;3.10;;;;;;;12.30;100.00;101172.66;4974626;28;20066;-88
2022/10/14 05:37:46;;;;;;;5.10;3.07;;;;;;;12.30;100.00;101169.19;4974520;28;20019;-88
2022/10/14 05:40:11;;;;;;;5.30;3.37;;;;;;;12.31;100.00;101176.13;4974398;28;20031;-88
2022/10/14 05:42:36;;;;;;;3.97;2.93;;;;;;;12.31;100.00;101178.72;4974569;28;20066;-88
2022/10/14 05:45:02;;;;;;;5.33;3.60;;;;;;;12.35;100.00;101169.97;4973878;28;20059;-88
2022/10/14 05:47:27;;;;;;;6.13;3.80;;;;;;;12.33;100.00;101164.78;4973945;28;20507;-89
2022/10/14 05:49:52;;;;;;;5.67;3.53;;;;;;;12.32;100.00;101160.50;4973290;28;20047;-87
2022/10/14 05:52:18;;;;;;;4.10;3.00;;;;;;;12.33;100.00;101164.78;4974176;28;20030;-88
2022/10/14 05:54:43;;;;;;;3.87;2.80;;;;;;;12.34;100.00;101166.50;4974490;28;20029;-89
2022/10/14 05:57:09;;;;;;;3.37;2.77;;;;;;;12.35;100.00;101164.78;4973685;28;20031;-88
2022/10/14 05:59:34;;;;;;;3.23;2.50;;;;;;;12.36;100.00;101156.94;4974463;28;20027;-89
2022/10/14 06:02:00;;;;;;;4.43;3.07;;;;;;;12.36;100.00;101153.47;4973741;28;20038;-88
2022/10/14 06:04:26;;;;;;;4.03;3.05;;;;;;;12.37;100.00;101152.59;4973889;28;20054;-88
2022/10/14 06:06:51;;;;;;;3.90;2.63;;;;;;;12.36;100.00;101158.69;4974097;28;20020;-88
2022/10/14 06:09:17;;;;;;;2.27;2.07;;;;;;;12.39;100.00;101162.97;4974513;28;20019;-88
2022/10/14 06:11:42;;;;;;;3.07;2.50;;;;;;;12.39;100.00;101157.75;4973727;28;20181;-88
2022/10/14 06:14:08;;;;;;;4.43;3.00;;;;;;;12.40;100.00;101149.06;4973817;28;20030;-88
2022/10/14 06:16:33;;;;;;;3.87;3.00;;;;;;;12.41;100.00;101153.41;4974516;28;20027;-88
2022/10/14 06:18:58;;;;;;;2.57;2.30;;;;;;;12.41;100.00;101151.63;4972252;28;20038;-86
2022/10/14 06:21:23;;;;;;;3.40;2.47;;;;;;;12.41;100.00;101146.44;4974385;28;20039;-89
2022/10/14 06:23:49;;;;;;;3.13;2.47;;;;;;;12.42;100.00;101145.53;4974670;28;20027;-88
2022/10/14 06:26:14;;;;;;;3.97;3.00;;;;;;;12.47;100.00;101151.53;4974052;28;20035;-88
2022/10/14 06:28:39;;;;;;;4.93;3.27;;;;;;;12.45;100.00;101142.91;4974156;28;20054;-89
2022/10/14 06:31:05;;;;;;;3.33;2.80;;;;;;;12.47;100.00;101148.94;4973719;28;20482;-88
2022/10/14 06:33:31;;;;;;;3.17;2.30;;;;;;;12.47;100.00;101148.94;4973751;28;20486;-89
2022/10/14 06:35:56;;;;;;;2.80;2.30;;;;;;;12.49;100.00;101146.28;4976568;28;20030;-92
2022/10/14 06:38:22;;;;;;;4.57;2.67;;;;;;;12.49;100.00;101141.97;4978019;28;20023;-96
2022/10/14 06:40:51;;;;;;;3.27;2.50;;;;;;;12.50;100.00;101142.81;4978330;28;20034;-95
2022/10/14 06:43:18;;;;;;;3.15;2.42;;;;;;;12.50;100.00;101146.25;4978048;28;20049;-96
2022/10/14 06:45:43;;;;;;;2.75;2.38;;;;;;;12.51;100.00;101136.72;4977994;28;20031;-96
2022/10/14 06:48:08;;;;;;;2.97;2.37;;;;;;;12.52;100.00;101141.03;4977899;28;20035;-96
2022/10/14 06:50:34;;;;;;;2.50;2.10;;;;;;;12.54;100.00;101143.59;4977493;28;20051;-95
2022/10/14 06:52:59;;;;;;;4.10;2.50;;;;;;;12.56;100.00;101131.44;4977659;28;20030;-96
2022/10/14 06:55:24;;;;;;;6.93;3.73;;;;;;;12.55;100.00;101133.19;4977894;28;20467;-92
2022/10/14 06:57:49;;;;;;;5.60;3.67;;;;;;;12.55;100.00;101134.91;4977822;28;20058;-93
2022/10/14 07:00:15;;;;;;;5.47;3.73;;;;;;;12.55;100.00;101125.38;4977965;28;20023;-95
2022/10/14 07:02:41;;;;;;;4.85;3.20;;;;;;;12.58;100.00;101127.06;4978470;28;20471;-96
2022/10/14 07:05:06;;;;;;;5.20;3.40;;;;;;;12.58;100.00;101124.44;4978015;28;20070;-94
2022/10/14 07:07:32;;;;;;;4.43;3.17;;;;;;;12.60;100.00;101120.91;4976702;28;20041;-92
2022/10/14 07:09:57;;;;;;;4.40;3.40;;;;;;;12.62;100.00;101113.06;4976965;28;20471;-96
2022/10/14 07:12:23;;;;;;;5.33;3.50;;;;;;;12.62;100.00;101113.94;4977182;28;20026;-90
2022/10/14 07:14:49;;;;;;;5.30;3.30;;;;;;;12.63;100.00;101114.78;4976993;28;20030;-90
2022/10/14 07:17:14;;;;;;;3.60;2.80;;;;;;;12.64;100.00;101119.97;4977174;28;20101;-90
2022/10/14 07:19:40;;;;;;;3.47;2.90;;;;;;;12.65;100.00;101116.50;4977321;28;20023;-89
2022/10/14 07:22:05;;;;;;;3.03;2.40;;;;;;;12.67;100.00;101122.50;4976450;28;20033;-90
2022/10/14 07:24:30;;;;;;;3.23;2.40;;;;;;;12.70;100.00;101121.59;4976934;28;20054;-96
2022/10/14 07:26:56;;;;;;;4.13;3.00;;;;;;;12.72;100.00;101130.22;4975887;28;20030;-92
2022/10/14 07:29:21;;;;;;;3.23;2.50;;;;;;;12.73;100.00;101133.69;4976580;28;20019;-88
2022/10/14 07:31:46;;;;;;;2.97;2.50;;;;;;;12.74;100.00;101131.06;4976539;28;20395;-88
2022/10/14 07:34:11;;;;;;;3.30;2.53;;;;;;;12.75;100.00;101132.78;4975998;28;20045;-88
2022/10/14 07:36:37;;;;;;;2.40;2.20;;;;;;;12.78;100.00;101135.31;4975868;28;20069;-88
2022/10/14 07:39:04;;;;;;;3.70;2.90;;;;;;;12.79;100.00;101137.06;4975853;28;20038;-88
2022/10/14 07:41:30;;;;;;;3.75;3.00;;;;;;;12.80;100.00;101127.47;4976566;28;20034;-88
2022/10/14 07:44:02;;;;;;;3.45;2.78;;;;;;;12.82;100.00;101125.69;4976050;28;20106;-88
2022/10/14 07:46:30;;;;;;;5.47;3.17;;;;;;;12.87;100.00;101128.22;4975528;28;20038;-88
2022/10/14 07:49:00;;;;;;;4.25;2.97;;;;;;;12.86;100.00;101123.88;4975889;28;20038;-86
2022/10/14 07:51:27;;;;;;;3.88;2.85;;;;;;;12.87;100.00;101117.78;4975880;28;20042;-90
2022/10/14 07:53:54;;;;;;;4.43;2.90;;;;;;;12.89;100.00;101124.69;4976777;28;20391;-89
2022/10/14 07:56:21;;;;;;;3.72;2.70;;;;;;;12.90;100.00;101121.19;4976667;28;20423;-91
2022/10/14 07:58:46;;;;;;;4.85;3.20;;;;;;;12.91;100.00;101122.06;4976586;28;20372;-91
2022/10/14 08:01:14;;;;;;;4.37;3.00;;;;;;;12.92;100.00;101116.81;4975833;28;20026;-91
2022/10/14 08:03:39;;;;;;;5.13;3.20;;;;;;;12.95;100.00;101115.88;4975687;28;20027;-92
2022/10/14 08:06:04;;;;;;;4.23;3.03;;;;;;;12.96;100.00;101107.19;4975811;28;20105;-91
2022/10/14 08:08:30;;;;;;;3.63;2.70;;;;;;;13.00;100.00;101114.06;4976039;28;20051;-92
2022/10/14 08:11:12;;;;;;;4.30;2.90;;;;;;;13.03;100.00;101116.59;4975186;28;20027;-93
2022/10/14 08:13:39;;;;;;;4.28;3.08;;;;;;;13.07;100.00;101112.19;4976226;28;20030;-92
2022/10/14 08:16:21;;;;;;;3.92;3.00;;;;;;;13.09;100.00;101107.78;4975779;28;20030;-91
2022/10/14 08:18:46;;;;;;;4.97;3.25;;;;;;;13.11;100.00;101112.06;4975712;28;20031;-92
2022/10/14 08:21:12;;;;;;;5.77;3.00;;;;;;;13.15;100.00;101110.25;4975611;28;20038;-91
2022/10/14 08:23:37;;;;;;;7.40;4.30;;;;;;;13.21;100.00;101104.03;4975850;28;20030;-92
2022/10/14 08:26:02;;;;;;;4.80;3.40;;;;;;;13.24;100.00;101096.16;4974567;28;20026;-92
2022/10/14 08:28:28;;;;;;;4.10;3.10;;;;;;;13.29;100.00;101097.78;4964928;28;20440;-91
2022/10/14 08:30:53;;;;;;;4.43;3.33;;;;;;;13.34;100.00;101092.47;4969657;28;20067;-92
2022/10/14 08:33:19;;;;;;;5.10;3.53;;;;;;;13.38;100.00;101096.72;4972229;28;20046;-92
2022/10/14 08:35:44;;;;;;;4.83;3.20;;;;;;;13.43;100.00;101104.47;4975321;28;20113;-94
2022/10/14 08:38:10;;;;;;;6.17;3.43;;;;;;;13.46;100.00;101104.38;4975637;28;20109;-92
2022/10/14 08:40:59;;;;;;;6.97;4.30;;;;;;;13.48;100.00;101112.19;4974337;28;20026;-92
2022/10/14 08:43:32;;;;;;;7.40;4.30;;;;;;;13.50;100.00;101110.41;4970330;28;20062;-92
2022/10/14 08:46:08;;;;;;;6.95;4.30;;;;;;;13.51;100.00;101105.13;4974789;28;20391;-92
2022/10/14 08:48:35;;;;;;;9.13;5.32;;;;;;;13.52;100.00;101100.75;4975491;28;20043;-93
2022/10/14 08:51:12;;;;;;;10.65;5.65;;;;;;;13.52;100.00;101105.97;4974845;28;20043;-92
2022/10/14 08:54:05;;;;;;;8.88;5.07;;;;;;;13.53;100.00;101103.34;4975004;28;20460;-93
2022/10/14 08:56:31;;;;;;;8.30;4.75;;;;;;;13.56;100.00;101095.47;4975126;28;20029;-92
2022/10/14 08:59:01;;;;;;;6.97;4.25;;;;;;;13.60;100.00;101093.63;4974671;28;20033;-93
2022/10/14 09:01:31;;;;;;;5.70;3.80;;;;;;;13.64;100.00;101097.03;4974557;28;20023;-93
2022/10/14 09:04:00;;;;;;;8.70;4.30;;;;;;;13.67;100.00;101104.78;4974805;28;20023;-92
2022/10/14 09:06:29;;;;;;;8.02;4.60;;;;;;;13.69;100.00;101093.41;4975177;28;20097;-92
2022/10/14 09:09:05;;;;;;;8.15;5.00;;;;;;;13.71;100.00;101096.84;4974532;28;20193;-93
2022/10/14 09:11:37;;;;;;;8.90;5.78;;;;;;;13.72;100.00;101093.34;4975237;28;20030;-93
2022/10/14 09:14:06;;;;;;;8.10;4.70;;;;;;;13.74;100.00;101088.94;4974231;28;20427;-93
2022/10/14 09:16:35;;;;;;;6.90;4.15;;;;;;;13.77;100.00;101090.63;4975215;28;20153;-92
2022/10/14 09:19:03;;;;;;;8.15;4.70;;;;;;;13.79;100.00;101087.97;4975214;28;20023;-93
2022/10/14 09:21:36;;;;;;;7.40;4.32;;;;;;;13.80;100.00;101087.91;4974020;28;20023;-93
2022/10/14 09:24:40;;;;;;;5.82;3.50;;;;;;;13.82;100.00;101080.91;4971312;28;20484;-93
2022/10/14 09:27:13;;;;;;;3.85;3.00;;;;;;;13.86;100.00;101085.16;4974987;28;20146;-93
2022/10/14 09:29:52;;;;;;;6.55;3.60;;;;;;;13.86;100.00;101074.75;4974611;28;20025;-93
2022/10/14 09:32:26;;;;;;;5.90;3.95;;;;;;;13.86;100.00;101069.53;4975017;28;20055;-92
2022/10/14 09:34:52;;;;;;;5.55;3.88;;;;;;;13.87;100.00;101071.22;4973626;28;20019;-93
2022/10/14 09:37:28;;;;;;;6.72;3.95;;;;;;;13.87;100.00;101071.22;4974669;28;20029;-92
2022/10/14 09:39:57;;;;;;;7.28;4.32;;;;;;;13.88;100.00;101072.94;4974542;28;20027;-95
2022/10/14 09:42:38;;;;;;;11.30;5.68;;;;;;;13.89;100.00;101072.06;4974277;28;20031;-93
2022/10/14 09:45:08;;;;;;;8.88;4.88;;;;;;;13.90;100.00;101067.69;4974771;28;20030;-93
2022/10/14 09:47:42;;;;;;;9.48;4.78;;;;;;;13.90;100.00;101065.06;4974462;28;20023;-95
2022/10/14 09:50:13;;;;;;;6.80;4.50;;;;;;;13.90;100.00;101071.13;4973416;28;20071;-94
2022/10/14 09:52:38;;;;;;;5.70;3.90;;;;;;;13.90;100.00;101067.69;4974919;28;20098;-94
2022/10/14 09:55:17;;;;;;;5.83;3.80;;;;;;;13.91;100.00;101069.41;4974638;28;20061;-93
2022/10/14 09:57:43;;;;;;;5.50;3.45;;;;;;;13.92;100.00;101059.81;4973924;28;20038;-93
2022/10/14 10:00:25;;;;;;;4.45;3.22;;;;;;;13.94;100.00;101060.63;4974205;28;20031;-93
2022/10/14 10:02:51;;;;;;;4.75;3.35;;;;;;;13.98;100.00;101060.50;4955201;28;20059;-94
2022/10/14 10:05:24;;;;;;;5.93;3.92;;;;;;;14.00;100.00;101057.88;4955212;28;20035;-93
2022/10/14 10:08:05;;;;;;;4.88;3.28;;;;;;;14.04;100.00;101059.50;4955508;28;20042;-93
2022/10/14 10:10:31;;;;;;;4.25;3.20;;;;;;;14.06;100.00;101055.09;4965361;28;20073;-93
2022/10/14 10:12:57;;;;;;;4.13;2.90;;;;;;;14.09;100.00;101051.53;4978038;28;20027;-93
2022/10/14 10:15:23;;;;;;;3.72;2.90;;;;;;;14.11;100.00;101052.34;4978321;28;20106;-93
2022/10/14 10:17:50;;;;;;;3.97;2.83;;;;;;;14.12;100.00;101056.69;4977727;28;20034;-93
2022/10/14 10:20:34;;;;;;;3.85;3.03;;;;;;;14.11;100.00;101047.13;4978943;28;20046;-91
2022/10/14 10:23:24;;;;;;;3.10;2.30;;;;;;;14.12;100.00;101051.47;4977063;28;20018;-91
2022/10/14 10:25:50;;;;;;;3.17;2.50;;;;;;;14.14;100.00;101049.69;4977158;28;20030;-91
2022/10/14 10:28:18;;;;;;;3.25;2.50;;;;;;;14.16;100.00;101040.06;4976567;28;20076;-91
2022/10/14 10:31:01;;;;;;;2.70;2.33;;;;;;;14.16;100.00;101040.91;4976947;28;20027;-92
2022/10/14 10:33:39;;;;;;;3.80;2.70;;;;;;;14.15;100.00;101035.72;4978082;28;20487;-90
2022/10/14 10:36:28;;;;;;;3.20;2.30;;;;;;;14.15;100.00;101040.94;4977254;28;20037;-90
2022/10/14 10:39:12;;;;;;;3.22;2.60;;;;;;;14.16;100.00;101034.84;4977024;28;20037;-90
2022/10/14 10:41:40;;;;;;;2.42;2.22;;;;;;;14.18;100.00;101031.28;4977711;28;20114;-90
2022/10/14 10:44:17;;;;;;;2.92;2.38;;;;;;;14.19;100.00;101027.78;4979556;28;20023;-93
2022/10/14 10:47:09;;;;;;;3.58;2.80;;;;;;;14.20;100.00;101021.66;4977216;28;20042;-89
2022/10/14 10:50:16;;;;;;;2.92;2.55;;;;;;;14.24;100.00;101027.63;4977111;28;20102;-88
2022/10/14 10:53:02;;;;;;;3.10;2.40;;;;;;;14.25;100.00;101029.34;4976809;28;20041;-87
2022/10/14 10:55:40;;;;;;;2.72;2.45;;;;;;;14.26;100.00;101031.06;4977094;28;20019;-88
2022/10/14 10:58:46;;;;;;;2.63;2.28;;;;;;;14.27;100.00;101026.69;4977029;28;20388;-88
2022/10/14 11:02:02;;;;;;;2.88;2.53;;;;;;;14.27;100.00;101017.13;4975965;28;20133;-87
2022/10/14 11:04:31;;;;;;;2.70;2.30;;;;;;;14.29;100.00;101020.56;4972461;28;20121;-88
2022/10/14 11:13:24;;;;;;;3.05;2.63;;;;;;;14.41;100.00;101010.66;4947081;29;20097;-88
2022/10/14 11:16:03;;;;;;;3.05;2.50;;;;;;;14.42;100.00;101012.34;4963482;28;20475;-88
2022/10/14 11:18:48;;;;;;;3.85;2.95;;;;;;;14.48;100.00;101009.56;4976357;28;20031;-89
2022/10/14 11:21:23;;;;;;;4.30;3.03;;;;;;;14.42;100.00;101005.38;4975706;28;20037;-88
2022/10/14 11:24:12;;;;;;;2.60;2.40;;;;;;;14.42;100.00;100999.28;4976410;28;20030;-88
2022/10/14 11:26:57;;;;;;;3.58;2.40;;;;;;;14.43;100.00;101007.09;4976195;28;20046;-88
2022/10/14 11:29:48;;;;;;;2.53;2.33;;;;;;;14.44;100.00;101010.53;4975781;28;20030;-89
2022/10/14 11:32:22;;;;;;;3.53;2.70;;;;;;;14.42;100.00;101004.50;4975964;28;20153;-88
2022/10/14 11:35:16;;;;;;;3.28;2.75;;;;;;;14.41;100.00;100995.00;4976509;28;20471;-90
2022/10/14 11:37:56;;;;;;;3.60;3.10;;;;;;;14.41;100.00;100989.78;4976333;28;20034;-89